sensor_id;sensor_type;location;lat;lon;timestamp;P1;durP1;ratioP1;P2;durP2;ratioP2
4754;SDS011;2391;47.212;7.542;2023-05-07T00:00:02;5.97;;;2.57;;
4754;SDS011;2391;47.212;7.542;2023-05-07T00:02:31;5.37;;;3.10;;
4754;SDS011;2391;47.212;7.542;2023-05-07T00:04:57;3.53;;;3.27;;
4754;SDS011;2391;47.212;7.542;2023-05-07T00:07:23;9.17;;;3.17;;
4754;SDS011;2391;47.212;7.542;2023-05-07T00:09:49;4.57;;;3.50;;
4754;SDS011;2391;47.212;7.542;2023-05-07T00:12:15;3.27;;;3.07;;
4754;SDS011;2391;47.212;7.542;2023-05-07T00:14:41;3.40;;;2.93;;
4754;SDS011;2391;47.212;7.542;2023-05-07T00:17:06;3.60;;;3.30;;
4754;SDS011;2391;47.212;7.542;2023-05-07T00:19:32;4.90;;;3.97;;
4754;SDS011;2391;47.212;7.542;2023-05-07T00:21:58;5.23;;;4.07;;
4754;SDS011;2391;47.212;7.542;2023-05-07T00:24:24;4.40;;;4.00;;
4754;SDS011;2391;47.212;7.542;2023-05-07T00:26:49;3.90;;;3.60;;
4754;SDS011;2391;47.212;7.542;2023-05-07T00:29:15;10.37;;;4.17;;
4754;SDS011;2391;47.212;7.542;2023-05-07T00:31:41;6.23;;;4.00;;
4754;SDS011;2391;47.212;7.542;2023-05-07T00:34:07;4.40;;;4.00;;
4754;SDS011;2391;47.212;7.542;2023-05-07T00:36:32;11.53;;;5.57;;
4754;SDS011;2391;47.212;7.542;2023-05-07T00:39:02;4.20;;;3.90;;
4754;SDS011;2391;47.212;7.542;2023-05-07T00:41:28;5.73;;;3.50;;
4754;SDS011;2391;47.212;7.542;2023-05-07T00:43:53;3.93;;;3.27;;
4754;SDS011;2391;47.212;7.542;2023-05-07T00:46:20;3.47;;;2.73;;
4754;SDS011;2391;47.212;7.542;2023-05-07T00:48:46;3.47;;;2.90;;
4754;SDS011;2391;47.212;7.542;2023-05-07T00:51:13;4.43;;;2.80;;
4754;SDS011;2391;47.212;7.542;2023-05-07T00:53:39;7.60;;;3.03;;
4754;SDS011;2391;47.212;7.542;2023-05-07T00:56:05;3.47;;;2.50;;
4754;SDS011;2391;47.212;7.542;2023-05-07T00:58:33;3.27;;;2.97;;
4754;SDS011;2391;47.212;7.542;2023-05-07T01:00:59;3.53;;;2.67;;
4754;SDS011;2391;47.212;7.542;2023-05-07T01:03:25;4.90;;;3.00;;
4754;SDS011;2391;47.212;7.542;2023-05-07T01:05:52;3.80;;;2.60;;
4754;SDS011;2391;47.212;7.542;2023-05-07T01:08:19;4.90;;;2.97;;
4754;SDS011;2391;47.212;7.542;2023-05-07T01:10:47;4.13;;;2.73;;
4754;SDS011;2391;47.212;7.542;2023-05-07T01:13:12;6.33;;;2.80;;
4754;SDS011;2391;47.212;7.542;2023-05-07T01:15:39;3.90;;;2.73;;
4754;SDS011;2391;47.212;7.542;2023-05-07T01:18:08;2.70;;;2.50;;
4754;SDS011;2391;47.212;7.542;2023-05-07T01:20:34;4.30;;;2.67;;
4754;SDS011;2391;47.212;7.542;2023-05-07T01:23:00;3.07;;;2.67;;
4754;SDS011;2391;47.212;7.542;2023-05-07T01:25:26;3.37;;;2.70;;
4754;SDS011;2391;47.212;7.542;2023-05-07T01:27:52;3.47;;;3.17;;
4754;SDS011;2391;47.212;7.542;2023-05-07T01:30:18;3.33;;;3.03;;
4754;SDS011;2391;47.212;7.542;2023-05-07T01:32:56;2.80;;;2.60;;
4754;SDS011;2391;47.212;7.542;2023-05-07T01:35:19;7.80;;;3.30;;
4754;SDS011;2391;47.212;7.542;2023-05-07T01:37:47;4.13;;;2.83;;
4754;SDS011;2391;47.212;7.542;2023-05-07T01:40:15;7.00;;;2.70;;
4754;SDS011;2391;47.212;7.542;2023-05-07T01:42:42;3.10;;;2.80;;
4754;SDS011;2391;47.212;7.542;2023-05-07T01:45:09;3.33;;;3.03;;
4754;SDS011;2391;47.212;7.542;2023-05-07T01:47:36;2.80;;;2.60;;
4754;SDS011;2391;47.212;7.542;2023-05-07T01:50:03;3.23;;;2.90;;
4754;SDS011;2391;47.212;7.542;2023-05-07T01:52:31;3.03;;;2.90;;
4754;SDS011;2391;47.212;7.542;2023-05-07T01:54:57;5.63;;;3.17;;
4754;SDS011;2391;47.212;7.542;2023-05-07T01:57:23;3.60;;;2.70;;
4754;SDS011;2391;47.212;7.542;2023-05-07T01:59:48;3.33;;;2.90;;
4754;SDS011;2391;47.212;7.542;2023-05-07T02:02:14;3.10;;;2.90;;
4754;SDS011;2391;47.212;7.542;2023-05-07T02:04:40;3.23;;;2.93;;
4754;SDS011;2391;47.212;7.542;2023-05-07T02:07:06;3.00;;;2.80;;
4754;SDS011;2391;47.212;7.542;2023-05-07T02:09:32;4.23;;;2.80;;
4754;SDS011;2391;47.212;7.542;2023-05-07T02:11:57;2.70;;;2.40;;
4754;SDS011;2391;47.212;7.542;2023-05-07T02:14:23;3.73;;;3.07;;
4754;SDS011;2391;47.212;7.542;2023-05-07T02:16:49;2.67;;;2.43;;
4754;SDS011;2391;47.212;7.542;2023-05-07T02:19:14;4.93;;;2.93;;
4754;SDS011;2391;47.212;7.542;2023-05-07T02:21:40;3.50;;;3.20;;
4754;SDS011;2391;47.212;7.542;2023-05-07T02:24:06;2.87;;;2.67;;
4754;SDS011;2391;47.212;7.542;2023-05-07T02:26:32;5.10;;;3.10;;
4754;SDS011;2391;47.212;7.542;2023-05-07T02:28:59;2.87;;;2.60;;
4754;SDS011;2391;47.212;7.542;2023-05-07T02:31:25;3.00;;;2.80;;
4754;SDS011;2391;47.212;7.542;2023-05-07T02:33:51;3.70;;;2.57;;
4754;SDS011;2391;47.212;7.542;2023-05-07T02:36:16;4.10;;;2.40;;
4754;SDS011;2391;47.212;7.542;2023-05-07T02:38:42;5.50;;;2.60;;
4754;SDS011;2391;47.212;7.542;2023-05-07T02:41:08;4.27;;;2.80;;
4754;SDS011;2391;47.212;7.542;2023-05-07T02:43:34;14.90;;;3.03;;
4754;SDS011;2391;47.212;7.542;2023-05-07T02:46:00;2.63;;;2.43;;
4754;SDS011;2391;47.212;7.542;2023-05-07T02:48:28;5.07;;;2.33;;
4754;SDS011;2391;47.212;7.542;2023-05-07T02:50:53;3.50;;;2.77;;
4754;SDS011;2391;47.212;7.542;2023-05-07T02:53:19;2.50;;;2.30;;
4754;SDS011;2391;47.212;7.542;2023-05-07T02:55:45;4.10;;;2.20;;
4754;SDS011;2391;47.212;7.542;2023-05-07T02:58:11;2.53;;;2.20;;
4754;SDS011;2391;47.212;7.542;2023-05-07T03:00:36;3.60;;;2.50;;
4754;SDS011;2391;47.212;7.542;2023-05-07T03:03:02;3.20;;;2.67;;
4754;SDS011;2391;47.212;7.542;2023-05-07T03:05:28;2.57;;;2.33;;
4754;SDS011;2391;47.212;7.542;2023-05-07T03:07:54;2.87;;;2.67;;
4754;SDS011;2391;47.212;7.542;2023-05-07T03:10:20;2.97;;;2.70;;
4754;SDS011;2391;47.212;7.542;2023-05-07T03:12:45;3.10;;;2.40;;
4754;SDS011;2391;47.212;7.542;2023-05-07T03:15:11;3.10;;;2.80;;
4754;SDS011;2391;47.212;7.542;2023-05-07T03:17:38;2.90;;;2.70;;
4754;SDS011;2391;47.212;7.542;2023-05-07T03:20:04;2.00;;;1.90;;
4754;SDS011;2391;47.212;7.542;2023-05-07T03:22:31;3.97;;;2.33;;
4754;SDS011;2391;47.212;7.542;2023-05-07T03:24:56;6.83;;;2.33;;
4754;SDS011;2391;47.212;7.542;2023-05-07T03:27:22;2.30;;;2.20;;
4754;SDS011;2391;47.212;7.542;2023-05-07T03:29:48;2.73;;;2.53;;
4754;SDS011;2391;47.212;7.542;2023-05-07T03:32:14;5.03;;;2.10;;
4754;SDS011;2391;47.212;7.542;2023-05-07T03:34:39;2.80;;;2.60;;
4754;SDS011;2391;47.212;7.542;2023-05-07T03:37:05;2.80;;;2.60;;
4754;SDS011;2391;47.212;7.542;2023-05-07T03:39:31;8.53;;;2.53;;
4754;SDS011;2391;47.212;7.542;2023-05-07T03:41:57;2.43;;;2.33;;
4754;SDS011;2391;47.212;7.542;2023-05-07T03:44:23;2.53;;;2.33;;
4754;SDS011;2391;47.212;7.542;2023-05-07T03:46:49;2.10;;;1.93;;
4754;SDS011;2391;47.212;7.542;2023-05-07T03:49:15;3.73;;;2.20;;
4754;SDS011;2391;47.212;7.542;2023-05-07T03:51:40;2.80;;;2.50;;
4754;SDS011;2391;47.212;7.542;2023-05-07T03:54:07;2.50;;;2.30;;
4754;SDS011;2391;47.212;7.542;2023-05-07T03:56:33;2.57;;;2.37;;
4754;SDS011;2391;47.212;7.542;2023-05-07T03:58:59;2.67;;;2.23;;
4754;SDS011;2391;47.212;7.542;2023-05-07T04:01:25;3.17;;;2.93;;
4754;SDS011;2391;47.212;7.542;2023-05-07T04:03:51;2.47;;;2.30;;
4754;SDS011;2391;47.212;7.542;2023-05-07T04:06:17;2.60;;;2.40;;
4754;SDS011;2391;47.212;7.542;2023-05-07T04:08:43;2.33;;;2.13;;
4754;SDS011;2391;47.212;7.542;2023-05-07T04:11:08;3.30;;;3.00;;
4754;SDS011;2391;47.212;7.542;2023-05-07T04:13:34;3.47;;;2.73;;
4754;SDS011;2391;47.212;7.542;2023-05-07T04:16:01;3.50;;;2.60;;
4754;SDS011;2391;47.212;7.542;2023-05-07T04:18:28;2.77;;;2.50;;
4754;SDS011;2391;47.212;7.542;2023-05-07T04:20:54;2.57;;;2.40;;
4754;SDS011;2391;47.212;7.542;2023-05-07T04:23:20;2.83;;;2.40;;
4754;SDS011;2391;47.212;7.542;2023-05-07T04:25:46;2.33;;;2.20;;
4754;SDS011;2391;47.212;7.542;2023-05-07T04:28:11;2.50;;;2.40;;
4754;SDS011;2391;47.212;7.542;2023-05-07T04:30:37;2.43;;;2.23;;
4754;SDS011;2391;47.212;7.542;2023-05-07T04:33:04;2.27;;;2.17;;
4754;SDS011;2391;47.212;7.542;2023-05-07T04:35:29;4.93;;;2.70;;
4754;SDS011;2391;47.212;7.542;2023-05-07T04:37:55;8.90;;;2.60;;
4754;SDS011;2391;47.212;7.542;2023-05-07T04:40:21;2.63;;;2.30;;
4754;SDS011;2391;47.212;7.542;2023-05-07T04:42:46;2.50;;;2.30;;
4754;SDS011;2391;47.212;7.542;2023-05-07T04:45:12;3.53;;;2.17;;
4754;SDS011;2391;47.212;7.542;2023-05-07T04:47:38;2.20;;;2.10;;
4754;SDS011;2391;47.212;7.542;2023-05-07T04:50:04;2.53;;;2.33;;
4754;SDS011;2391;47.212;7.542;2023-05-07T04:52:32;3.37;;;2.47;;
4754;SDS011;2391;47.212;7.542;2023-05-07T04:54:59;2.90;;;2.70;;
4754;SDS011;2391;47.212;7.542;2023-05-07T04:57:26;3.00;;;2.80;;
4754;SDS011;2391;47.212;7.542;2023-05-07T04:59:52;4.23;;;2.93;;
4754;SDS011;2391;47.212;7.542;2023-05-07T05:02:19;2.70;;;2.60;;
4754;SDS011;2391;47.212;7.542;2023-05-07T05:04:44;2.90;;;2.67;;
4754;SDS011;2391;47.212;7.542;2023-05-07T05:07:10;4.50;;;3.20;;
4754;SDS011;2391;47.212;7.542;2023-05-07T05:09:36;3.10;;;2.70;;
4754;SDS011;2391;47.212;7.542;2023-05-07T05:12:02;3.23;;;2.93;;
4754;SDS011;2391;47.212;7.542;2023-05-07T05:14:29;3.07;;;2.87;;
4754;SDS011;2391;47.212;7.542;2023-05-07T05:16:54;5.73;;;3.13;;
4754;SDS011;2391;47.212;7.542;2023-05-07T05:19:20;4.90;;;2.83;;
4754;SDS011;2391;47.212;7.542;2023-05-07T05:21:46;4.20;;;2.40;;
4754;SDS011;2391;47.212;7.542;2023-05-07T05:24:12;2.77;;;2.57;;
4754;SDS011;2391;47.212;7.542;2023-05-07T05:26:37;3.20;;;2.40;;
4754;SDS011;2391;47.212;7.542;2023-05-07T05:29:03;2.67;;;2.47;;
4754;SDS011;2391;47.212;7.542;2023-05-07T05:31:29;6.00;;;2.77;;
4754;SDS011;2391;47.212;7.542;2023-05-07T05:33:55;2.43;;;2.27;;
4754;SDS011;2391;47.212;7.542;2023-05-07T05:36:21;3.37;;;2.50;;
4754;SDS011;2391;47.212;7.542;2023-05-07T05:38:47;4.50;;;2.97;;
4754;SDS011;2391;47.212;7.542;2023-05-07T05:41:13;3.93;;;3.10;;
4754;SDS011;2391;47.212;7.542;2023-05-07T05:43:42;5.33;;;2.63;;
4754;SDS011;2391;47.212;7.542;2023-05-07T05:46:07;2.87;;;2.67;;
4754;SDS011;2391;47.212;7.542;2023-05-07T05:48:35;5.20;;;2.50;;
4754;SDS011;2391;47.212;7.542;2023-05-07T05:51:01;4.97;;;3.13;;
4754;SDS011;2391;47.212;7.542;2023-05-07T05:53:26;3.37;;;3.17;;
4754;SDS011;2391;47.212;7.542;2023-05-07T05:55:52;4.00;;;3.60;;
4754;SDS011;2391;47.212;7.542;2023-05-07T05:58:18;3.70;;;3.40;;
4754;SDS011;2391;47.212;7.542;2023-05-07T06:00:44;4.93;;;3.20;;
4754;SDS011;2391;47.212;7.542;2023-05-07T06:03:13;5.43;;;3.60;;
4754;SDS011;2391;47.212;7.542;2023-05-07T06:05:39;3.40;;;3.10;;
4754;SDS011;2391;47.212;7.542;2023-05-07T06:08:05;2.87;;;2.67;;
4754;SDS011;2391;47.212;7.542;2023-05-07T06:10:30;4.07;;;3.57;;
4754;SDS011;2391;47.212;7.542;2023-05-07T06:12:56;7.30;;;3.80;;
4754;SDS011;2391;47.212;7.542;2023-05-07T06:15:22;6.30;;;3.00;;
4754;SDS011;2391;47.212;7.542;2023-05-07T06:17:48;3.67;;;3.40;;
4754;SDS011;2391;47.212;7.542;2023-05-07T06:20:14;4.60;;;3.53;;
4754;SDS011;2391;47.212;7.542;2023-05-07T06:22:40;4.67;;;4.33;;
4754;SDS011;2391;47.212;7.542;2023-05-07T06:25:06;7.30;;;4.83;;
4754;SDS011;2391;47.212;7.542;2023-05-07T06:27:32;4.87;;;4.47;;
4754;SDS011;2391;47.212;7.542;2023-05-07T06:29:58;4.27;;;3.87;;
4754;SDS011;2391;47.212;7.542;2023-05-07T06:32:24;4.23;;;3.90;;
4754;SDS011;2391;47.212;7.542;2023-05-07T06:34:49;4.30;;;3.80;;
4754;SDS011;2391;47.212;7.542;2023-05-07T06:37:15;4.20;;;3.90;;
4754;SDS011;2391;47.212;7.542;2023-05-07T06:39:41;4.10;;;3.70;;
4754;SDS011;2391;47.212;7.542;2023-05-07T06:42:07;3.93;;;3.40;;
4754;SDS011;2391;47.212;7.542;2023-05-07T06:44:32;3.17;;;2.97;;
4754;SDS011;2391;47.212;7.542;2023-05-07T06:46:58;4.80;;;3.93;;
4754;SDS011;2391;47.212;7.542;2023-05-07T06:49:24;5.90;;;3.70;;
4754;SDS011;2391;47.212;7.542;2023-05-07T06:51:50;5.57;;;3.70;;
4754;SDS011;2391;47.212;7.542;2023-05-07T06:54:16;3.70;;;3.40;;
4754;SDS011;2391;47.212;7.542;2023-05-07T06:56:42;5.40;;;3.60;;
4754;SDS011;2391;47.212;7.542;2023-05-07T06:59:08;3.33;;;3.13;;
4754;SDS011;2391;47.212;7.542;2023-05-07T07:01:33;4.10;;;3.70;;
4754;SDS011;2391;47.212;7.542;2023-05-07T07:03:59;4.30;;;3.77;;
4754;SDS011;2391;47.212;7.542;2023-05-07T07:06:25;6.80;;;3.63;;
4754;SDS011;2391;47.212;7.542;2023-05-07T07:08:52;4.27;;;3.70;;
4754;SDS011;2391;47.212;7.542;2023-05-07T07:11:18;4.57;;;3.80;;
4754;SDS011;2391;47.212;7.542;2023-05-07T07:13:43;5.80;;;4.20;;
4754;SDS011;2391;47.212;7.542;2023-05-07T07:16:12;4.40;;;4.10;;
4754;SDS011;2391;47.212;7.542;2023-05-07T07:18:38;3.43;;;2.87;;
4754;SDS011;2391;47.212;7.542;2023-05-07T07:21:03;3.13;;;2.93;;
4754;SDS011;2391;47.212;7.542;2023-05-07T07:23:29;3.87;;;3.50;;
4754;SDS011;2391;47.212;7.542;2023-05-07T07:25:55;3.00;;;2.80;;
4754;SDS011;2391;47.212;7.542;2023-05-07T07:28:22;4.20;;;3.30;;
4754;SDS011;2391;47.212;7.542;2023-05-07T07:30:48;3.83;;;3.30;;
4754;SDS011;2391;47.212;7.542;2023-05-07T07:33:13;2.80;;;2.60;;
4754;SDS011;2391;47.212;7.542;2023-05-07T07:35:40;5.73;;;3.00;;
4754;SDS011;2391;47.212;7.542;2023-05-07T07:38:05;3.37;;;3.07;;
4754;SDS011;2391;47.212;7.542;2023-05-07T07:40:31;3.90;;;3.23;;
4754;SDS011;2391;47.212;7.542;2023-05-07T07:42:57;3.57;;;3.27;;
4754;SDS011;2391;47.212;7.542;2023-05-07T07:45:23;5.67;;;3.03;;
4754;SDS011;2391;47.212;7.542;2023-05-07T07:47:48;4.20;;;3.13;;
4754;SDS011;2391;47.212;7.542;2023-05-07T07:50:14;3.10;;;2.23;;
4754;SDS011;2391;47.212;7.542;2023-05-07T07:52:40;6.27;;;3.10;;
4754;SDS011;2391;47.212;7.542;2023-05-07T07:55:06;5.93;;;2.90;;
4754;SDS011;2391;47.212;7.542;2023-05-07T07:57:32;2.87;;;2.67;;
4754;SDS011;2391;47.212;7.542;2023-05-07T07:59:58;3.00;;;2.80;;
4754;SDS011;2391;47.212;7.542;2023-05-07T08:02:24;3.23;;;2.77;;
4754;SDS011;2391;47.212;7.542;2023-05-07T08:04:50;2.60;;;2.40;;
4754;SDS011;2391;47.212;7.542;2023-05-07T08:07:16;3.00;;;2.80;;
4754;SDS011;2391;47.212;7.542;2023-05-07T08:09:43;2.60;;;2.40;;
4754;SDS011;2391;47.212;7.542;2023-05-07T08:12:09;2.83;;;2.60;;
4754;SDS011;2391;47.212;7.542;2023-05-07T08:14:35;7.23;;;2.60;;
4754;SDS011;2391;47.212;7.542;2023-05-07T08:17:02;3.00;;;2.70;;
4754;SDS011;2391;47.212;7.542;2023-05-07T08:19:28;2.63;;;2.43;;
4754;SDS011;2391;47.212;7.542;2023-05-07T08:21:53;2.90;;;2.70;;
4754;SDS011;2391;47.212;7.542;2023-05-07T08:24:20;2.90;;;2.10;;
4754;SDS011;2391;47.212;7.542;2023-05-07T08:26:46;6.87;;;2.53;;
4754;SDS011;2391;47.212;7.542;2023-05-07T08:29:12;5.53;;;2.60;;
4754;SDS011;2391;47.212;7.542;2023-05-07T08:31:37;2.37;;;2.17;;
4754;SDS011;2391;47.212;7.542;2023-05-07T08:34:06;5.37;;;2.37;;
4754;SDS011;2391;47.212;7.542;2023-05-07T08:36:32;4.30;;;2.13;;
4754;SDS011;2391;47.212;7.542;2023-05-07T08:38:59;2.60;;;2.40;;
4754;SDS011;2391;47.212;7.542;2023-05-07T08:41:25;11.50;;;2.67;;
4754;SDS011;2391;47.212;7.542;2023-05-07T08:43:51;4.63;;;2.87;;
4754;SDS011;2391;47.212;7.542;2023-05-07T08:46:17;3.20;;;2.77;;
4754;SDS011;2391;47.212;7.542;2023-05-07T08:48:45;3.60;;;2.37;;
4754;SDS011;2391;47.212;7.542;2023-05-07T08:51:16;3.33;;;2.53;;
4754;SDS011;2391;47.212;7.542;2023-05-07T08:53:42;4.93;;;2.83;;
4754;SDS011;2391;47.212;7.542;2023-05-07T08:56:08;2.93;;;2.73;;
4754;SDS011;2391;47.212;7.542;2023-05-07T08:58:35;2.80;;;2.10;;
4754;SDS011;2391;47.212;7.542;2023-05-07T09:01:09;8.30;;;2.70;;
4754;SDS011;2391;47.212;7.542;2023-05-07T09:03:37;2.90;;;2.43;;
4754;SDS011;2391;47.212;7.542;2023-05-07T09:06:05;2.87;;;2.47;;
4754;SDS011;2391;47.212;7.542;2023-05-07T09:08:32;2.83;;;2.63;;
4754;SDS011;2391;47.212;7.542;2023-05-07T09:10:58;5.80;;;2.67;;
4754;SDS011;2391;47.212;7.542;2023-05-07T09:13:24;2.47;;;2.33;;
4754;SDS011;2391;47.212;7.542;2023-05-07T09:15:50;4.03;;;2.83;;
4754;SDS011;2391;47.212;7.542;2023-05-07T09:18:16;5.00;;;2.60;;
4754;SDS011;2391;47.212;7.542;2023-05-07T09:20:42;3.27;;;2.97;;
4754;SDS011;2391;47.212;7.542;2023-05-07T09:23:08;4.60;;;2.90;;
4754;SDS011;2391;47.212;7.542;2023-05-07T09:25:34;5.33;;;2.93;;
4754;SDS011;2391;47.212;7.542;2023-05-07T09:28:02;2.47;;;2.27;;
4754;SDS011;2391;47.212;7.542;2023-05-07T09:30:29;2.23;;;2.13;;
4754;SDS011;2391;47.212;7.542;2023-05-07T09:32:56;7.23;;;2.57;;
4754;SDS011;2391;47.212;7.542;2023-05-07T09:35:26;3.00;;;2.63;;
4754;SDS011;2391;47.212;7.542;2023-05-07T09:37:57;3.93;;;2.60;;
4754;SDS011;2391;47.212;7.542;2023-05-07T09:40:27;8.30;;;2.90;;
4754;SDS011;2391;47.212;7.542;2023-05-07T09:42:54;2.40;;;2.30;;
4754;SDS011;2391;47.212;7.542;2023-05-07T09:45:29;4.20;;;2.83;;
4754;SDS011;2391;47.212;7.542;2023-05-07T09:47:55;2.47;;;2.27;;
4754;SDS011;2391;47.212;7.542;2023-05-07T09:50:27;7.40;;;2.43;;
4754;SDS011;2391;47.212;7.542;2023-05-07T09:52:56;3.00;;;2.80;;
4754;SDS011;2391;47.212;7.542;2023-05-07T09:55:22;3.23;;;2.70;;
4754;SDS011;2391;47.212;7.542;2023-05-07T09:57:53;3.03;;;2.70;;
4754;SDS011;2391;47.212;7.542;2023-05-07T10:00:21;3.90;;;2.43;;
4754;SDS011;2391;47.212;7.542;2023-05-07T10:02:48;6.83;;;3.20;;
4754;SDS011;2391;47.212;7.542;2023-05-07T10:05:20;3.00;;;2.80;;
4754;SDS011;2391;47.212;7.542;2023-05-07T10:07:47;4.33;;;2.73;;
4754;SDS011;2391;47.212;7.542;2023-05-07T10:10:16;4.43;;;3.03;;
4754;SDS011;2391;47.212;7.542;2023-05-07T10:12:43;7.23;;;3.27;;
4754;SDS011;2391;47.212;7.542;2023-05-07T10:15:13;2.80;;;2.60;;
4754;SDS011;2391;47.212;7.542;2023-05-07T10:17:40;7.00;;;2.90;;
4754;SDS011;2391;47.212;7.542;2023-05-07T10:20:06;3.00;;;2.70;;
4754;SDS011;2391;47.212;7.542;2023-05-07T10:22:41;3.90;;;2.67;;
4754;SDS011;2391;47.212;7.542;2023-05-07T10:25:18;2.90;;;2.70;;
4754;SDS011;2391;47.212;7.542;2023-05-07T10:27:55;3.73;;;3.10;;
4754;SDS011;2391;47.212;7.542;2023-05-07T10:32:53;6.20;;;3.33;;
4754;SDS011;2391;47.212;7.542;2023-05-07T10:35:21;2.60;;;2.40;;
4754;SDS011;2391;47.212;7.542;2023-05-07T10:37:54;2.47;;;2.30;;
4754;SDS011;2391;47.212;7.542;2023-05-07T10:40:20;3.00;;;2.70;;
4754;SDS011;2391;47.212;7.542;2023-05-07T10:42:52;3.07;;;2.87;;
4754;SDS011;2391;47.212;7.542;2023-05-07T10:45:25;8.53;;;2.83;;
4754;SDS011;2391;47.212;7.542;2023-05-07T10:50:37;4.00;;;3.33;;
4754;SDS011;2391;47.212;7.542;2023-05-07T10:53:19;8.23;;;2.43;;
4754;SDS011;2391;47.212;7.542;2023-05-07T10:55:47;2.80;;;2.47;;
4754;SDS011;2391;47.212;7.542;2023-05-07T11:01:01;3.33;;;2.97;;
4754;SDS011;2391;47.212;7.542;2023-05-07T11:03:24;2.70;;;2.50;;
4754;SDS011;2391;47.212;7.542;2023-05-07T11:06:09;3.10;;;2.90;;
4754;SDS011;2391;47.212;7.542;2023-05-07T11:08:56;4.60;;;2.93;;
4754;SDS011;2391;47.212;7.542;2023-05-07T11:14:12;3.43;;;3.13;;
4754;SDS011;2391;47.212;7.542;2023-05-07T11:16:40;3.20;;;3.00;;
4754;SDS011;2391;47.212;7.542;2023-05-07T11:19:08;2.90;;;2.70;;
4754;SDS011;2391;47.212;7.542;2023-05-07T11:21:38;2.40;;;2.20;;
4754;SDS011;2391;47.212;7.542;2023-05-07T11:24:06;3.83;;;2.30;;
4754;SDS011;2391;47.212;7.542;2023-05-07T11:26:55;4.53;;;2.60;;
4754;SDS011;2391;47.212;7.542;2023-05-07T11:29:26;3.67;;;2.30;;
4754;SDS011;2391;47.212;7.542;2023-05-07T11:31:49;7.40;;;2.00;;
4754;SDS011;2391;47.212;7.542;2023-05-07T11:34:25;2.80;;;2.43;;
4754;SDS011;2391;47.212;7.542;2023-05-07T11:36:49;1.80;;;1.70;;
4754;SDS011;2391;47.212;7.542;2023-05-07T11:41:53;4.70;;;2.37;;
4754;SDS011;2391;47.212;7.542;2023-05-07T11:44:19;2.73;;;1.87;;
4754;SDS011;2391;47.212;7.542;2023-05-07T11:46:45;4.13;;;1.90;;
4754;SDS011;2391;47.212;7.542;2023-05-07T11:49:11;1.80;;;1.70;;
4754;SDS011;2391;47.212;7.542;2023-05-07T11:51:36;4.10;;;1.30;;
4754;SDS011;2391;47.212;7.542;2023-05-07T11:54:05;0.90;;;0.90;;
4754;SDS011;2391;47.212;7.542;2023-05-07T11:56:33;1.97;;;1.00;;
4754;SDS011;2391;47.212;7.542;2023-05-07T11:59:00;2.40;;;0.90;;
4754;SDS011;2391;47.212;7.542;2023-05-07T12:01:26;1.27;;;1.00;;
4754;SDS011;2391;47.212;7.542;2023-05-07T12:03:52;0.70;;;0.70;;
4754;SDS011;2391;47.212;7.542;2023-05-07T12:06:18;2.30;;;0.70;;
4754;SDS011;2391;47.212;7.542;2023-05-07T12:08:44;0.70;;;0.70;;
4754;SDS011;2391;47.212;7.542;2023-05-07T12:11:23;1.00;;;0.77;;
4754;SDS011;2391;47.212;7.542;2023-05-07T12:13:51;1.00;;;0.90;;
4754;SDS011;2391;47.212;7.542;2023-05-07T12:16:17;0.70;;;0.70;;
4754;SDS011;2391;47.212;7.542;2023-05-07T12:18:43;1.27;;;0.80;;
4754;SDS011;2391;47.212;7.542;2023-05-07T12:21:09;7.10;;;2.30;;
4754;SDS011;2391;47.212;7.542;2023-05-07T12:23:36;20.07;;;3.03;;
4754;SDS011;2391;47.212;7.542;2023-05-07T12:26:03;1.20;;;0.90;;
4754;SDS011;2391;47.212;7.542;2023-05-07T12:28:36;0.77;;;0.77;;
4754;SDS011;2391;47.212;7.542;2023-05-07T12:30:59;0.70;;;0.70;;
4754;SDS011;2391;47.212;7.542;2023-05-07T12:33:26;0.80;;;0.77;;
4754;SDS011;2391;47.212;7.542;2023-05-07T12:35:54;1.40;;;0.80;;
4754;SDS011;2391;47.212;7.542;2023-05-07T12:38:32;1.47;;;0.97;;
4754;SDS011;2391;47.212;7.542;2023-05-07T12:40:56;3.03;;;0.90;;
4754;SDS011;2391;47.212;7.542;2023-05-07T12:43:25;0.80;;;0.70;;
4754;SDS011;2391;47.212;7.542;2023-05-07T12:45:55;1.73;;;0.70;;
4754;SDS011;2391;47.212;7.542;2023-05-07T12:50:58;0.80;;;0.80;;
4754;SDS011;2391;47.212;7.542;2023-05-07T12:53:34;0.70;;;0.70;;
4754;SDS011;2391;47.212;7.542;2023-05-07T12:56:11;0.97;;;0.80;;
4754;SDS011;2391;47.212;7.542;2023-05-07T12:58:48;1.80;;;0.70;;
4754;SDS011;2391;47.212;7.542;2023-05-07T13:04:00;0.90;;;0.70;;
4754;SDS011;2391;47.212;7.542;2023-05-07T13:06:28;1.60;;;0.80;;
4754;SDS011;2391;47.212;7.542;2023-05-07T13:08:55;0.70;;;0.70;;
4754;SDS011;2391;47.212;7.542;2023-05-07T13:11:21;1.13;;;0.80;;
4754;SDS011;2391;47.212;7.542;2023-05-07T13:13:48;1.30;;;0.70;;
4754;SDS011;2391;47.212;7.542;2023-05-07T13:16:14;0.60;;;0.60;;
4754;SDS011;2391;47.212;7.542;2023-05-07T13:18:40;4.30;;;0.70;;
4754;SDS011;2391;47.212;7.542;2023-05-07T13:21:06;0.70;;;0.70;;
4754;SDS011;2391;47.212;7.542;2023-05-07T13:23:33;0.70;;;0.70;;
4754;SDS011;2391;47.212;7.542;2023-05-07T13:25:59;0.70;;;0.70;;
4754;SDS011;2391;47.212;7.542;2023-05-07T13:28:25;1.70;;;0.60;;
4754;SDS011;2391;47.212;7.542;2023-05-07T13:30:52;0.70;;;0.70;;
4754;SDS011;2391;47.212;7.542;2023-05-07T13:33:18;0.70;;;0.63;;
4754;SDS011;2391;47.212;7.542;2023-05-07T13:35:44;0.63;;;0.63;;
4754;SDS011;2391;47.212;7.542;2023-05-07T13:38:10;3.43;;;0.70;;
4754;SDS011;2391;47.212;7.542;2023-05-07T13:40:36;2.20;;;0.70;;
4754;SDS011;2391;47.212;7.542;2023-05-07T13:43:01;0.80;;;0.70;;
4754;SDS011;2391;47.212;7.542;2023-05-07T13:45:28;1.47;;;0.70;;
4754;SDS011;2391;47.212;7.542;2023-05-07T13:47:55;3.83;;;0.80;;
4754;SDS011;2391;47.212;7.542;2023-05-07T13:50:21;0.80;;;0.60;;
4754;SDS011;2391;47.212;7.542;2023-05-07T13:52:47;1.63;;;0.87;;
4754;SDS011;2391;47.212;7.542;2023-05-07T13:55:15;0.77;;;0.70;;
4754;SDS011;2391;47.212;7.542;2023-05-07T13:57:40;5.80;;;0.77;;
4754;SDS011;2391;47.212;7.542;2023-05-07T14:00:06;3.60;;;1.23;;
4754;SDS011;2391;47.212;7.542;2023-05-07T14:02:33;0.60;;;0.60;;
4754;SDS011;2391;47.212;7.542;2023-05-07T14:04:59;0.60;;;0.50;;
4754;SDS011;2391;47.212;7.542;2023-05-07T14:07:25;2.13;;;0.70;;
4754;SDS011;2391;47.212;7.542;2023-05-07T14:09:51;0.80;;;0.70;;
4754;SDS011;2391;47.212;7.542;2023-05-07T14:12:16;0.83;;;0.70;;
4754;SDS011;2391;47.212;7.542;2023-05-07T14:14:57;0.90;;;0.80;;
4754;SDS011;2391;47.212;7.542;2023-05-07T14:17:23;0.70;;;0.60;;
4754;SDS011;2391;47.212;7.542;2023-05-07T14:19:51;1.30;;;0.80;;
4754;SDS011;2391;47.212;7.542;2023-05-07T14:22:19;0.90;;;0.70;;
4754;SDS011;2391;47.212;7.542;2023-05-07T14:24:45;1.47;;;0.80;;
4754;SDS011;2391;47.212;7.542;2023-05-07T14:27:11;0.70;;;0.70;;
4754;SDS011;2391;47.212;7.542;2023-05-07T14:29:46;1.27;;;0.80;;
4754;SDS011;2391;47.212;7.542;2023-05-07T14:32:13;1.93;;;0.90;;
4754;SDS011;2391;47.212;7.542;2023-05-07T14:34:39;0.80;;;0.73;;
4754;SDS011;2391;47.212;7.542;2023-05-07T14:37:05;0.83;;;0.70;;
4754;SDS011;2391;47.212;7.542;2023-05-07T14:39:31;0.60;;;0.60;;
4754;SDS011;2391;47.212;7.542;2023-05-07T14:41:56;1.10;;;0.70;;
4754;SDS011;2391;47.212;7.542;2023-05-07T14:44:22;1.37;;;1.27;;
4754;SDS011;2391;47.212;7.542;2023-05-07T14:46:48;20.20;;;1.07;;
4754;SDS011;2391;47.212;7.542;2023-05-07T14:49:14;2.17;;;0.60;;
4754;SDS011;2391;47.212;7.542;2023-05-07T14:51:42;0.60;;;0.60;;
4754;SDS011;2391;47.212;7.542;2023-05-07T14:54:09;1.23;;;0.70;;
4754;SDS011;2391;47.212;7.542;2023-05-07T14:56:35;1.17;;;0.70;;
4754;SDS011;2391;47.212;7.542;2023-05-07T14:59:02;0.70;;;0.70;;
4754;SDS011;2391;47.212;7.542;2023-05-07T15:01:28;4.83;;;0.87;;
4754;SDS011;2391;47.212;7.542;2023-05-07T15:03:55;7.10;;;0.90;;
4754;SDS011;2391;47.212;7.542;2023-05-07T15:06:21;2.50;;;0.90;;
4754;SDS011;2391;47.212;7.542;2023-05-07T15:08:47;0.70;;;0.70;;
4754;SDS011;2391;47.212;7.542;2023-05-07T15:11:14;1.27;;;0.60;;
4754;SDS011;2391;47.212;7.542;2023-05-07T15:13:41;4.03;;;0.73;;
4754;SDS011;2391;47.212;7.542;2023-05-07T15:16:08;1.10;;;0.63;;
4754;SDS011;2391;47.212;7.542;2023-05-07T15:18:33;1.40;;;0.70;;
4754;SDS011;2391;47.212;7.542;2023-05-07T15:20:59;0.80;;;0.80;;
4754;SDS011;2391;47.212;7.542;2023-05-07T15:23:25;0.87;;;0.70;;
4754;SDS011;2391;47.212;7.542;2023-05-07T15:25:52;1.57;;;0.70;;
4754;SDS011;2391;47.212;7.542;2023-05-07T15:28:18;1.10;;;1.00;;
4754;SDS011;2391;47.212;7.542;2023-05-07T15:30:45;0.80;;;0.80;;